Time;durP1;ratioP1;P1;durP2;ratioP2;P2;SDS_P1;SDS_P2;PMS_P1;PMS_P2;Temp;Humidity;BMP_temperature;BMP_pressure;BME280_temperature;BME280_humidity;BME280_pressure;Samples;Min_cycle;Max_cycle;Signal;HPM_P1;HPM_P2
2021/10/07 00:01:07;0.00;0.00;0.62;0.00;0.00;0.62;1.87;1.00;;;26.90;29.40;;;;;;2265245;61;20373;-64
2021/10/07 00:03:53;0.00;0.00;0.62;0.00;0.00;0.62;2.10;1.40;;;26.90;29.40;;;;;;2265065;61;20563;-64
2021/10/07 00:06:38;0.00;0.00;0.62;0.00;0.00;0.62;2.00;1.00;;;26.80;29.40;;;;;;2265468;61;20737;-64
2021/10/07 00:09:23;0.00;0.00;0.62;0.00;0.00;0.62;2.73;1.33;;;26.80;29.30;;;;;;2266269;61;20788;-65
2021/10/07 00:12:08;0.00;0.00;0.62;0.00;0.00;0.62;3.10;1.23;;;26.80;29.40;;;;;;2265609;61;20816;-64
2021/10/07 00:14:53;0.00;0.00;0.62;0.00;0.00;0.62;2.20;1.00;;;26.80;29.40;;;;;;2265935;61;20728;-65
2021/10/07 00:17:37;0.00;0.00;0.62;0.00;0.00;0.62;2.50;1.10;;;26.80;29.40;;;;;;2266296;61;20449;-65
2021/10/07 00:20:24;0.00;0.00;0.62;0.00;0.00;0.62;2.43;1.20;;;26.70;29.30;;;;;;2265388;61;20674;-66
2021/10/07 00:23:08;0.00;0.00;0.62;0.00;0.00;0.62;1.40;1.13;;;26.70;29.40;;;;;;2265932;61;20384;-65
2021/10/07 00:25:53;0.00;0.00;0.62;0.00;0.00;0.62;1.90;1.30;;;26.70;29.40;;;;;;2266079;61;20385;-65
2021/10/07 00:28:37;0.00;0.00;0.62;0.00;0.00;0.62;1.40;0.90;;;26.70;29.40;;;;;;2265556;61;20393;-65
2021/10/07 00:31:24;0.00;0.00;0.62;0.00;0.00;0.62;1.70;1.30;;;26.70;29.40;;;;;;2266259;61;20357;-66
2021/10/07 00:35:21;0.00;0.00;0.62;0.00;0.00;0.62;1.60;1.03;;;26.60;29.30;;;;;;2265417;61;20380;-65
2021/10/07 00:40:10;0.00;0.00;0.62;0.00;0.00;0.62;1.40;1.00;;;26.60;29.40;;;;;;2266243;61;20592;-65
2021/10/07 00:42:55;0.00;0.00;0.62;0.00;0.00;0.62;2.43;1.03;;;26.60;29.40;;;;;;2265293;61;20360;-65
2021/10/07 00:45:39;0.00;0.00;0.62;0.00;0.00;0.62;2.47;1.10;;;26.60;29.40;;;;;;2266039;61;20377;-65
2021/10/07 00:48:24;0.00;0.00;0.62;0.00;0.00;0.62;2.23;1.00;;;26.50;29.40;;;;;;2265957;61;20361;-65
2021/10/07 00:51:08;0.00;0.00;0.62;0.00;0.00;0.62;1.63;1.00;;;26.50;29.40;;;;;;2265454;61;20360;-66
2021/10/07 00:53:54;0.00;0.00;0.62;0.00;0.00;0.62;1.83;1.00;;;26.50;29.40;;;;;;2265880;61;20349;-65
2021/10/07 00:56:40;0.00;0.00;0.62;0.00;0.00;0.62;1.67;1.30;;;26.50;29.40;;;;;;2265516;61;20473;-65
2021/10/07 00:59:25;0.00;0.00;0.62;0.00;0.00;0.62;2.00;1.30;;;26.50;29.40;;;;;;2265753;61;20578;-65
2021/10/07 01:02:09;0.00;0.00;0.62;0.00;0.00;0.62;1.60;0.90;;;26.40;29.40;;;;;;2266144;61;20717;-66
2021/10/07 01:04:55;0.00;0.00;0.62;0.00;0.00;0.62;2.23;1.10;;;26.40;29.40;;;;;;2265240;61;20384;-66
2021/10/07 01:07:40;0.00;0.00;0.62;0.00;0.00;0.62;3.30;1.30;;;26.40;29.40;;;;;;2265889;61;20354;-65
2021/10/07 01:10:27;0.00;0.00;0.62;0.00;0.00;0.62;2.27;1.20;;;26.40;29.40;;;;;;2265593;61;20415;-65
2021/10/07 01:13:13;0.00;0.00;0.62;0.00;0.00;0.62;1.80;1.20;;;26.40;29.40;;;;;;2264824;61;20361;-65
2021/10/07 01:16:01;0.00;0.00;0.62;0.00;0.00;0.62;1.80;1.07;;;26.40;29.40;;;;;;2266146;61;20385;-65
2021/10/07 01:18:46;0.00;0.00;0.62;0.00;0.00;0.62;1.57;1.10;;;26.40;29.40;;;;;;2265236;61;20391;-66
2021/10/07 01:21:31;0.00;0.00;0.62;0.00;0.00;0.62;2.20;1.33;;;26.30;29.40;;;;;;2265652;61;20365;-66
2021/10/07 01:24:16;0.00;0.00;0.62;0.00;0.00;0.62;2.40;1.30;;;26.30;29.40;;;;;;2265644;61;20381;-65
2021/10/07 01:27:02;0.00;0.00;0.62;0.00;0.00;0.62;2.20;1.50;;;26.30;29.30;;;;;;2265135;61;20364;-65
2021/10/07 01:29:52;0.00;0.00;0.62;0.00;0.00;0.62;1.60;1.03;;;26.30;29.40;;;;;;2265818;61;20384;-65
2021/10/07 01:32:40;0.00;0.00;0.62;0.00;0.00;0.62;1.70;1.23;;;26.30;29.30;;;;;;2265221;61;20353;-65
2021/10/07 01:35:25;0.00;0.00;0.62;0.00;0.00;0.62;1.63;1.03;;;26.30;29.40;;;;;;2265169;61;20381;-65
2021/10/07 01:38:11;0.00;0.00;0.62;0.00;0.00;0.62;1.83;1.20;;;26.30;29.30;;;;;;2266143;61;20360;-65
2021/10/07 01:40:56;0.00;0.00;0.62;0.00;0.00;0.62;2.33;1.20;;;26.30;29.80;;;;;;2265122;61;20385;-65
2021/10/07 01:43:40;0.00;0.00;0.62;0.00;0.00;0.62;1.90;1.30;;;26.30;29.30;;;;;;2265407;61;20646;-65
2021/10/07 01:46:25;0.00;0.00;0.62;0.00;0.00;0.62;1.50;0.90;;;26.20;29.30;;;;;;2266103;61;20430;-65
2021/10/07 01:49:09;0.00;0.00;0.62;0.00;0.00;0.62;1.50;1.00;;;26.20;29.30;;;;;;2264993;61;20455;-65
2021/10/07 01:51:54;0.00;0.00;0.62;0.00;0.00;0.62;1.80;1.03;;;26.20;29.30;;;;;;2265928;61;20356;-65
2021/10/07 01:54:41;0.00;0.00;0.62;0.00;0.00;0.62;1.50;1.00;;;26.20;29.30;;;;;;2265349;61;20400;-65
2021/10/07 01:57:25;0.00;0.00;0.62;0.00;0.00;0.62;2.03;1.43;;;26.20;29.30;;;;;;2264888;61;20576;-65
2021/10/07 02:00:12;0.00;0.00;0.62;0.00;0.00;0.62;1.63;1.13;;;26.20;29.30;;;;;;2265643;61;20587;-65
2021/10/07 02:02:57;0.00;0.00;0.62;0.00;0.00;0.62;2.27;1.13;;;26.20;29.30;;;;;;2265000;61;20411;-65
2021/10/07 02:05:41;0.00;0.00;0.62;0.00;0.00;0.62;4.50;1.13;;;26.20;29.30;;;;;;2265517;61;20440;-65
2021/10/07 02:08:26;0.00;0.00;0.62;0.00;0.00;0.62;2.03;1.60;;;26.20;29.30;;;;;;2265990;61;20365;-65
2021/10/07 02:11:12;0.00;0.00;0.62;0.00;0.00;0.62;1.87;1.23;;;26.10;29.30;;;;;;2264731;61;20430;-65
2021/10/07 02:13:57;0.00;0.00;0.62;0.00;0.00;0.62;2.03;1.30;;;26.10;29.30;;;;;;2265432;61;20439;-65
2021/10/07 02:16:41;0.00;0.00;0.62;0.00;0.00;0.62;2.33;1.40;;;26.10;29.30;;;;;;2265908;61;20361;-65
2021/10/07 02:19:26;0.00;0.00;0.62;0.00;0.00;0.62;2.10;1.20;;;26.10;29.30;;;;;;2265446;61;20397;-65
2021/10/07 02:22:10;0.00;0.00;0.62;0.00;0.00;0.62;1.90;1.10;;;26.10;29.30;;;;;;2265522;61;20405;-65
2021/10/07 02:24:55;0.00;0.00;0.62;0.00;0.00;0.62;1.53;1.10;;;26.10;29.30;;;;;;2265306;61;20594;-65
2021/10/07 02:27:41;0.00;0.00;0.62;0.00;0.00;0.62;1.90;1.10;;;26.10;29.30;;;;;;2265393;61;20365;-65
2021/10/07 02:30:25;0.00;0.00;0.62;0.00;0.00;0.62;2.00;1.27;;;26.10;29.30;;;;;;2265666;61;20388;-65
2021/10/07 02:33:11;0.00;0.00;0.62;0.00;0.00;0.62;1.50;1.00;;;26.10;29.40;;;;;;2265256;61;20380;-65
2021/10/07 02:35:56;0.00;0.00;0.62;0.00;0.00;0.62;2.80;1.40;;;26.00;29.30;;;;;;2265491;61;20755;-65
2021/10/07 02:38:40;0.00;0.00;0.62;0.00;0.00;0.62;4.00;1.30;;;26.00;29.30;;;;;;2265864;61;20404;-65
2021/10/07 02:41:26;0.00;0.00;0.62;0.00;0.00;0.62;2.10;1.27;;;26.00;29.30;;;;;;2265093;61;20396;-64
2021/10/07 02:44:12;0.00;0.00;0.62;0.00;0.00;0.62;3.20;1.53;;;26.00;29.40;;;;;;2265492;61;20403;-65
2021/10/07 02:46:56;0.00;0.00;0.62;0.00;0.00;0.62;2.23;1.20;;;26.00;29.30;;;;;;2265479;61;20423;-65
2021/10/07 02:49:41;0.00;0.00;0.62;0.00;0.00;0.62;1.93;1.10;;;26.00;29.40;;;;;;2265349;61;20443;-65
2021/10/07 02:52:25;0.00;0.00;0.62;0.00;0.00;0.62;1.93;1.17;;;26.00;29.40;;;;;;2265662;61;20357;-65
2021/10/07 02:55:10;0.00;0.00;0.62;0.00;0.00;0.62;1.70;1.10;;;26.00;29.40;;;;;;2264739;61;20385;-65
2021/10/07 02:57:54;0.00;0.00;0.62;0.00;0.00;0.62;2.23;1.20;;;26.00;29.40;;;;;;2265336;61;20388;-65
2021/10/07 03:00:40;0.00;0.00;0.62;0.00;0.00;0.62;1.67;0.90;;;26.00;29.40;;;;;;2265769;61;20354;-65
2021/10/07 03:03:25;0.00;0.00;0.62;0.00;0.00;0.62;2.00;1.20;;;26.00;29.40;;;;;;2265066;61;20776;-65
2021/10/07 03:06:10;0.00;0.00;0.62;0.00;0.00;0.62;2.60;1.40;;;26.00;29.40;;;;;;2265383;61;20389;-65
2021/10/07 03:08:58;0.00;0.00;0.62;0.00;0.00;0.62;2.40;1.23;;;26.00;29.50;;;;;;2265399;61;20356;-65
2021/10/07 03:11:43;0.00;0.00;0.62;0.00;0.00;0.62;2.27;1.20;;;26.00;29.50;;;;;;2265077;61;20768;-65
2021/10/07 03:14:28;0.00;0.00;0.62;0.00;0.00;0.62;1.50;1.00;;;25.90;29.40;;;;;;2265593;61;20392;-65
2021/10/07 03:17:13;0.00;0.00;0.62;0.00;0.00;0.62;1.60;1.00;;;25.90;29.40;;;;;;2265086;61;20430;-65
2021/10/07 03:19:58;0.00;0.00;0.62;0.00;0.00;0.62;1.80;1.17;;;25.90;29.40;;;;;;2265253;61;20365;-65
2021/10/07 03:22:44;0.00;0.00;0.62;0.00;0.00;0.62;1.97;1.37;;;25.90;29.40;;;;;;2265602;61;20468;-65
2021/10/07 03:25:29;0.00;0.00;0.62;0.00;0.00;0.62;3.63;1.37;;;25.90;29.50;;;;;;2264939;61;20412;-65
2021/10/07 03:28:13;0.00;0.00;0.62;0.00;0.00;0.62;1.80;1.13;;;25.90;30.00;;;;;;2265579;61;20400;-65
2021/10/07 03:30:57;0.00;0.00;0.62;0.00;0.00;0.62;1.60;0.90;;;25.90;29.50;;;;;;2265387;61;20388;-65
2021/10/07 03:33:43;0.00;0.00;0.62;0.00;0.00;0.62;3.13;1.40;;;25.90;29.50;;;;;;2264688;61;20365;-65
2021/10/07 03:36:28;0.00;0.00;0.62;0.00;0.00;0.62;1.60;1.13;;;25.90;29.50;;;;;;2265743;61;20353;-65
2021/10/07 03:39:12;0.00;0.00;0.62;0.00;0.00;0.62;2.20;1.20;;;25.80;29.50;;;;;;2265079;61;20395;-65
2021/10/07 03:41:57;0.00;0.00;0.62;0.00;0.00;0.62;1.57;1.00;;;25.80;29.50;;;;;;2265847;61;20356;-65
2021/10/07 03:44:41;0.00;0.00;0.62;0.00;0.00;0.62;1.70;1.00;;;25.80;29.50;;;;;;2266227;61;20423;-66
2021/10/07 03:47:26;0.00;0.00;0.62;0.00;0.00;0.62;1.83;1.07;;;25.80;29.50;;;;;;2265552;61;20701;-65
2021/10/07 03:50:12;0.00;0.00;0.62;0.00;0.00;0.62;2.23;1.30;;;25.80;29.50;;;;;;2266056;61;20381;-66
2021/10/07 03:52:56;0.00;0.00;0.62;0.00;0.00;0.62;2.40;1.00;;;25.80;29.50;;;;;;2266421;61;20365;-65
2021/10/07 03:55:41;0.00;0.00;0.62;0.00;0.00;0.62;1.73;1.17;;;25.80;29.50;;;;;;2265632;61;20636;-65
2021/10/07 03:58:25;0.00;0.00;0.62;0.00;0.00;0.62;2.73;1.10;;;25.80;29.50;;;;;;2266451;61;20645;-65
2021/10/07 04:01:10;0.00;0.00;0.62;0.00;0.00;0.62;1.80;1.10;;;25.80;29.50;;;;;;2265758;61;20425;-65
2021/10/07 04:03:54;0.00;0.00;0.62;0.00;0.00;0.62;2.10;1.30;;;25.80;29.50;;;;;;2265820;61;20402;-65
2021/10/07 04:06:40;0.00;0.00;0.62;0.00;0.00;0.62;1.90;1.13;;;25.70;29.50;;;;;;2266372;61;20395;-65
2021/10/07 04:09:25;0.00;0.00;0.62;0.00;0.00;0.62;1.40;0.90;;;25.70;29.50;;;;;;2265312;61;20389;-65
2021/10/07 04:12:09;0.00;0.00;0.62;0.00;0.00;0.62;2.40;1.00;;;25.70;29.50;;;;;;2265954;61;20717;-65
2021/10/07 04:14:54;0.00;0.00;0.62;0.00;0.00;0.62;1.90;1.10;;;25.70;29.50;;;;;;2266207;61;20373;-65
2021/10/07 04:17:38;0.00;0.00;0.62;0.00;0.00;0.62;2.07;1.20;;;25.70;29.50;;;;;;2265504;61;20412;-65
2021/10/07 04:20:23;0.00;0.00;0.62;0.00;0.00;0.62;1.90;1.20;;;25.70;29.50;;;;;;2266366;61;20353;-65
2021/10/07 04:23:10;0.00;0.00;0.62;0.00;0.00;0.62;1.70;1.20;;;25.70;29.50;;;;;;2265843;61;20660;-65
2021/10/07 04:25:54;0.00;0.00;0.62;0.00;0.00;0.62;1.60;1.10;;;25.70;29.50;;;;;;2265897;61;20392;-65
2021/10/07 04:28:39;0.00;0.00;0.62;0.00;0.00;0.62;1.73;1.10;;;25.70;29.50;;;;;;2266328;61;20361;-65
2021/10/07 04:31:24;0.00;0.00;0.62;0.00;0.00;0.62;1.40;1.03;;;25.70;29.60;;;;;;2265312;61;20469;-65
2021/10/07 04:34:08;0.00;0.00;0.62;0.00;0.00;0.62;1.50;1.13;;;25.70;29.60;;;;;;2265946;61;20411;-65
2021/10/07 04:36:53;0.00;0.00;0.62;0.00;0.00;0.62;2.00;1.20;;;25.60;29.50;;;;;;2266249;61;20750;-65
2021/10/07 04:39:39;0.00;0.00;0.62;0.00;0.00;0.62;2.40;1.17;;;25.60;29.60;;;;;;2265424;61;20590;-65
2021/10/07 04:42:24;0.00;0.00;0.62;0.00;0.00;0.62;2.97;1.20;;;25.60;29.60;;;;;;2266193;61;20366;-65
2021/10/07 04:45:09;0.00;0.00;0.62;0.00;0.00;0.62;1.53;1.07;;;25.60;29.60;;;;;;2265668;61;20415;-65
2021/10/07 04:47:54;0.00;0.00;0.62;0.00;0.00;0.62;1.70;1.10;;;25.60;29.60;;;;;;2265584;61;20429;-65
2021/10/07 04:50:38;0.00;0.00;0.62;0.00;0.00;0.62;3.10;1.30;;;25.60;29.60;;;;;;2265763;61;20377;-65
2021/10/07 04:53:23;0.00;0.00;0.62;0.00;0.00;0.62;2.20;1.00;;;25.50;29.60;;;;;;2265201;61;20380;-65
2021/10/07 04:56:09;0.00;0.00;0.62;0.00;0.00;0.62;2.13;1.30;;;25.60;29.70;;;;;;2265826;61;20381;-65
2021/10/07 04:58:54;0.00;0.00;0.62;0.00;0.00;0.62;1.80;1.47;;;25.60;29.70;;;;;;2266053;61;20369;-64
2021/10/07 05:01:39;0.00;0.00;0.62;0.00;0.00;0.62;2.33;1.20;;;25.60;29.70;;;;;;2265270;61;20353;-65
2021/10/07 05:04:23;0.00;0.00;0.62;0.00;0.00;0.62;1.80;1.30;;;25.50;29.60;;;;;;2265811;61;20660;-65
2021/10/07 05:07:08;0.00;0.00;0.62;0.00;0.00;0.62;2.27;1.23;;;25.50;29.60;;;;;;2265850;61;20401;-65
2021/10/07 05:09:52;0.00;0.00;0.62;0.00;0.00;0.62;1.80;1.33;;;25.50;29.60;;;;;;2265402;61;20617;-64
2021/10/07 05:12:40;0.00;0.00;0.62;0.00;0.00;0.62;2.03;1.63;;;25.50;29.70;;;;;;2265914;61;20452;-65
2021/10/07 05:15:25;0.00;0.00;0.62;0.00;0.00;0.62;2.60;1.53;;;25.50;29.70;;;;;;2265279;61;20389;-66
2021/10/07 05:18:09;0.00;0.00;0.62;0.00;0.00;0.62;2.00;1.33;;;25.50;29.70;;;;;;2265904;61;20353;-65
2021/10/07 05:20:54;0.00;0.00;0.62;0.00;0.00;0.62;1.97;1.17;;;25.50;29.70;;;;;;2265934;61;20731;-65
2021/10/07 05:23:38;0.00;0.00;0.62;0.00;0.00;0.62;2.20;1.60;;;25.50;29.70;;;;;;2265158;61;20356;-65
2021/10/07 05:26:23;0.00;0.00;0.62;0.00;0.00;0.62;2.00;1.50;;;25.50;29.70;;;;;;2266032;61;20388;-65
2021/10/07 05:29:09;0.00;0.00;0.62;0.00;0.00;0.62;2.27;1.53;;;25.50;29.80;;;;;;2266010;61;20720;-65
2021/10/07 05:31:53;0.00;0.00;0.62;0.00;0.00;0.62;3.00;1.57;;;25.50;29.80;;;;;;2265528;61;20368;-65
2021/10/07 05:34:38;0.00;0.00;0.62;0.00;0.00;0.62;1.70;1.30;;;25.50;29.80;;;;;;2265829;61;20612;-65
2021/10/07 05:37:23;0.00;0.00;0.62;0.00;0.00;0.62;2.20;1.70;;;25.40;29.70;;;;;;2265677;61;20411;-65
2021/10/07 05:40:09;0.00;0.00;0.62;0.00;0.00;0.62;2.57;1.60;;;25.40;29.70;;;;;;2265649;61;20620;-65
2021/10/07 05:42:54;0.00;0.00;0.62;0.00;0.00;0.62;2.53;1.50;;;25.40;29.70;;;;;;2265857;61;20365;-64
2021/10/07 05:45:40;0.00;0.00;0.62;0.00;0.00;0.62;2.53;1.67;;;25.40;29.70;;;;;;2265326;61;20594;-64
2021/10/07 05:48:25;0.00;0.00;0.62;0.00;0.00;0.62;2.20;1.50;;;25.40;29.70;;;;;;2265727;61;20469;-64
2021/10/07 05:51:09;0.00;0.00;0.62;0.00;0.00;0.62;2.30;1.33;;;25.40;29.70;;;;;;2266122;61;20784;-65
2021/10/07 05:53:53;0.00;0.00;0.62;0.00;0.00;0.62;2.00;1.20;;;25.40;29.70;;;;;;2264990;61;20365;-66
2021/10/07 05:56:38;0.00;0.00;0.62;0.00;0.00;0.62;2.53;2.17;;;25.40;29.80;;;;;;2266065;61;20426;-65
2021/10/07 05:59:22;0.00;0.00;0.62;0.00;0.00;0.62;2.23;1.73;;;25.40;29.80;;;;;;2265606;61;20427;-65
2021/10/07 06:02:08;0.00;0.00;0.62;0.00;0.00;0.62;1.97;1.30;;;25.40;29.80;;;;;;2265287;61;20697;-65
2021/10/07 06:04:53;0.00;0.00;0.62;0.00;0.00;0.62;2.50;1.40;;;25.40;29.80;;;;;;2265971;61;20479;-66
2021/10/07 06:07:37;0.00;0.00;0.62;0.00;0.00;0.62;2.57;1.77;;;25.40;29.80;;;;;;2265216;61;20357;-67
2021/10/07 06:10:22;0.00;0.00;0.62;0.00;0.00;0.62;1.60;1.30;;;25.40;29.80;;;;;;2265372;61;20596;-65
2021/10/07 06:13:07;0.00;0.00;0.62;0.00;0.00;0.62;2.50;1.60;;;25.40;29.90;;;;;;2265439;61;20522;-65
2021/10/07 06:15:53;0.00;0.00;0.62;0.00;0.00;0.62;2.50;1.43;;;25.40;29.90;;;;;;2265031;61;20792;-67
2021/10/07 06:18:39;0.00;0.00;0.62;0.00;0.00;0.62;2.80;1.80;;;25.30;29.80;;;;;;2265772;61;20376;-68
2021/10/07 06:21:24;0.00;0.00;0.62;0.00;0.00;0.62;7.70;2.17;;;25.40;29.90;;;;;;2265439;61;20357;-68
2021/10/07 06:24:08;0.00;0.00;0.62;0.00;0.00;0.62;3.90;2.00;;;25.40;29.80;;;;;;2264982;61;20381;-71
2021/10/07 06:26:53;0.00;0.00;0.62;0.00;0.00;0.62;5.80;2.57;;;25.40;29.90;;;;;;2266028;61;20361;-67
2021/10/07 06:29:37;0.00;0.00;0.62;0.00;0.00;0.62;3.83;2.20;;;25.40;29.90;;;;;;2265211;61;20388;-69
2021/10/07 06:32:22;0.00;0.00;0.62;0.00;0.00;0.62;4.90;2.50;;;25.40;29.90;;;;;;2265221;61;20368;-68
2021/10/07 06:35:09;0.00;0.00;0.62;0.00;0.00;0.62;3.93;2.13;;;25.40;29.90;;;;;;2265843;61;20381;-71
2021/10/07 06:37:54;0.00;0.00;0.62;0.00;0.00;0.62;5.43;2.30;;;25.40;29.90;;;;;;2265184;61;20377;-70
2021/10/07 06:40:39;0.00;0.00;0.62;0.00;0.00;0.62;4.60;2.20;;;25.40;29.90;;;;;;2265498;61;20357;-67
2021/10/07 06:43:23;0.00;0.00;0.62;0.00;0.00;0.62;5.53;2.73;;;25.40;29.90;;;;;;2260272;61;20446;-69
2021/10/07 06:46:08;0.00;0.00;0.62;0.00;0.00;0.62;8.80;2.87;;;25.40;29.90;;;;;;2261831;61;20385;-72
2021/10/07 06:48:55;0.00;0.00;0.62;0.00;0.00;0.62;10.23;3.13;;;25.40;29.90;;;;;;2265665;61;20400;-72
2021/10/07 06:51:41;0.00;0.00;0.62;0.00;0.00;0.62;4.80;2.80;;;25.40;29.90;;;;;;2264657;61;20397;-71
2021/10/07 06:54:25;0.00;0.00;0.62;0.00;0.00;0.62;6.20;4.27;;;25.40;29.90;;;;;;2265338;61;20435;-66
2021/10/07 06:57:10;0.00;0.00;0.62;0.00;0.00;0.62;11.40;4.03;;;25.40;29.90;;;;;;2265923;61;20399;-67
2021/10/07 06:59:54;0.00;0.00;0.62;0.00;0.00;0.62;7.20;3.20;;;25.40;29.90;;;;;;2265009;61;20377;-66
2021/10/07 07:02:40;0.00;0.00;0.62;0.00;0.00;0.62;10.53;3.03;;;25.40;29.90;;;;;;2265488;61;20442;-73
2021/10/07 07:05:25;0.00;0.00;0.62;0.00;0.00;0.62;7.97;3.17;;;25.40;29.90;;;;;;2265704;61;20384;-74
2021/10/07 07:08:10;0.00;0.00;0.62;0.00;0.00;0.62;6.80;3.20;;;25.40;29.90;;;;;;2265101;61;20724;-68
2021/10/07 07:10:55;0.00;0.00;0.62;0.00;0.00;0.62;6.43;2.47;;;25.40;29.90;;;;;;2265591;61;20453;-72
2021/10/07 07:13:40;0.00;0.00;0.62;0.00;0.00;0.62;6.77;2.67;;;25.40;29.90;;;;;;2264974;61;20441;-66
2021/10/07 07:16:24;0.00;0.00;0.62;0.00;0.00;0.62;7.10;3.20;;;25.40;29.90;;;;;;2265397;61;20580;-68
2021/10/07 07:19:09;0.00;0.00;0.62;0.00;0.00;0.62;5.43;2.77;;;25.40;29.90;;;;;;2265713;61;20433;-66
2021/10/07 07:21:54;0.00;0.00;0.62;0.00;0.00;0.62;5.47;3.13;;;25.40;29.90;;;;;;2264951;61;20740;-68
2021/10/07 07:24:39;0.00;0.00;0.62;0.00;0.00;0.62;3.60;2.50;;;25.40;29.90;;;;;;2265324;61;20503;-70
2021/10/07 07:27:24;0.00;0.00;0.62;0.00;0.00;0.62;5.50;3.10;;;25.40;29.90;;;;;;2265769;61;20443;-69
2021/10/07 07:30:10;0.00;0.00;0.62;0.00;0.00;0.62;6.77;2.17;;;25.40;29.90;;;;;;2265086;61;20393;-73
2021/10/07 07:32:55;0.00;0.00;0.62;0.00;0.00;0.62;3.30;2.20;;;25.40;29.90;;;;;;2265588;61;20438;-65
2021/10/07 07:35:39;0.00;0.00;0.62;0.00;0.00;0.62;3.77;1.93;;;25.40;29.90;;;;;;2264812;61;20392;-62
2021/10/07 07:38:24;0.00;0.00;0.62;0.00;0.00;0.62;6.07;2.77;;;25.40;29.90;;;;;;2265472;61;20399;-65
2021/10/07 07:41:11;0.00;0.00;0.62;0.00;0.00;0.62;8.47;2.33;;;25.40;30.00;;;;;;2265750;61;20349;-66
2021/10/07 07:43:56;0.00;0.00;0.62;0.00;0.00;0.62;9.47;2.50;;;25.40;30.00;;;;;;2264852;61;20431;-65
2021/10/07 07:46:41;0.00;0.00;0.62;0.00;0.00;0.62;9.60;2.57;;;25.40;30.00;;;;;;2265488;61;20404;-65
2021/10/07 07:49:25;0.00;0.00;0.62;0.00;0.00;0.62;8.43;3.17;;;25.50;30.00;;;;;;2265719;61;20360;-65
2021/10/07 07:52:10;0.00;0.00;0.62;0.00;0.00;0.62;3.80;2.30;;;25.50;30.00;;;;;;2265046;61;20712;-63
2021/10/07 07:54:54;0.00;0.00;0.62;0.00;0.00;0.62;4.57;2.07;;;25.50;30.00;;;;;;2265508;61;20385;-63
2021/10/07 07:57:41;0.00;0.00;0.62;0.00;0.00;0.62;4.40;2.13;;;25.50;30.00;;;;;;2265273;61;20709;-65
2021/10/07 08:00:25;0.00;0.00;0.62;0.00;0.00;0.62;3.60;1.70;;;25.50;30.00;;;;;;2265225;61;20424;-65
2021/10/07 08:03:10;0.00;0.00;0.62;0.00;0.00;0.62;3.73;1.70;;;25.50;30.00;;;;;;2265687;61;20472;-65
2021/10/07 08:05:54;0.00;0.00;0.62;0.00;0.00;0.62;5.00;1.83;;;25.60;30.00;;;;;;2264927;61;20428;-65
2021/10/07 08:08:39;0.00;0.00;0.62;0.00;0.00;0.62;4.40;2.40;;;25.60;30.00;;;;;;2265320;61;20354;-65
2021/10/07 08:11:23;0.00;0.00;0.62;0.00;0.00;0.62;2.90;2.03;;;25.60;30.00;;;;;;2265636;61;20388;-65
2021/10/07 08:14:10;0.00;0.00;0.62;0.00;0.00;0.62;3.90;2.10;;;25.60;30.00;;;;;;2264737;61;20357;-65
2021/10/07 08:16:58;0.00;0.00;0.62;0.00;0.00;0.62;5.50;2.50;;;25.70;30.00;;;;;;2265538;61;20357;-66
2021/10/07 08:19:43;0.00;0.00;0.62;0.00;0.00;0.62;4.90;2.23;;;25.70;30.00;;;;;;2265379;61;20709;-65
2021/10/07 08:22:27;0.00;0.00;0.62;0.00;0.00;0.62;4.67;2.33;;;25.70;30.00;;;;;;2264908;61;20388;-65
2021/10/07 08:25:12;0.00;0.00;0.62;0.00;0.00;0.62;3.97;2.03;;;25.70;30.00;;;;;;2265663;61;20372;-65
2021/10/07 08:27:57;0.00;0.00;0.62;0.00;0.00;0.62;4.80;2.10;;;25.70;30.00;;;;;;2265462;61;20356;-65
2021/10/07 08:30:43;0.00;0.00;0.62;0.00;0.00;0.62;4.63;2.20;;;25.70;30.00;;;;;;2265955;61;20385;-65
2021/10/07 08:33:27;0.00;0.00;0.62;0.00;0.00;0.62;8.70;2.20;;;25.80;30.00;;;;;;2266117;61;20369;-65
2021/10/07 08:36:12;0.00;0.00;0.62;0.00;0.00;0.62;5.60;2.63;;;25.80;30.00;;;;;;2265400;61;20388;-65
2021/10/07 08:38:56;0.00;0.00;0.62;0.00;0.00;0.62;3.70;1.93;;;25.80;30.00;;;;;;2266200;61;20352;-65
2021/10/07 08:41:47;0.00;0.00;0.62;0.00;0.00;0.62;8.37;2.47;;;25.80;30.00;;;;;;2266252;61;20384;-65
2021/10/07 08:44:32;0.00;0.00;0.62;0.00;0.00;0.62;4.93;2.33;;;25.80;30.70;;;;;;2265571;61;20381;-65
2021/10/07 08:47:19;0.00;0.00;0.62;0.00;0.00;0.62;4.90;2.40;;;25.80;30.00;;;;;;2266348;61;20345;-65
2021/10/07 08:50:06;0.00;0.00;0.62;0.00;0.00;0.62;3.73;2.20;;;25.80;30.00;;;;;;2265472;61;20372;-65
2021/10/07 08:52:51;0.00;0.00;0.62;0.00;0.00;0.62;5.60;2.13;;;25.90;30.00;;;;;;2265704;61;20797;-65
2021/10/07 08:55:36;0.00;0.00;0.62;0.00;0.00;0.62;5.00;2.03;;;25.90;30.00;;;;;;2266183;61;20419;-65
2021/10/07 08:58:20;0.00;0.00;0.62;0.00;0.00;0.62;6.00;2.03;;;26.00;30.00;;;;;;2265504;61;20423;-65
2021/10/07 09:01:06;0.00;0.00;0.62;0.00;0.00;0.62;3.70;1.80;;;25.90;30.00;;;;;;2265948;61;20361;-65
2021/10/07 09:03:52;0.00;0.00;0.62;0.00;0.00;0.62;4.57;2.70;;;26.00;30.10;;;;;;2266128;61;20575;-65
2021/10/07 09:06:36;0.00;0.00;0.62;0.00;0.00;0.62;4.13;1.83;;;26.00;30.00;;;;;;2265620;61;20476;-64
2021/10/07 09:09:22;0.00;0.00;0.62;0.00;0.00;0.62;3.03;1.73;;;26.00;30.70;;;;;;2266193;61;20364;-65
2021/10/07 09:12:09;0.00;0.00;0.62;0.00;0.00;0.62;3.03;1.73;;;26.00;30.00;;;;;;2265505;61;20438;-65
2021/10/07 09:14:54;0.00;0.00;0.62;0.00;0.00;0.62;3.50;2.13;;;26.10;30.10;;;;;;2265813;61;20372;-63
2021/10/07 09:17:50;0.00;0.00;0.62;0.00;0.00;0.62;3.90;1.90;;;26.10;30.10;;;;;;2266243;61;20696;-63
2021/10/07 09:20:39;0.00;0.00;0.62;0.00;0.00;0.62;4.17;1.63;;;26.10;30.10;;;;;;2265543;61;20337;-63
2021/10/07 09:23:29;0.00;0.00;0.62;0.00;0.00;0.62;3.50;1.80;;;26.20;30.10;;;;;;2265890;61;20365;-64
2021/10/07 09:26:14;0.00;0.00;0.62;0.00;0.00;0.62;5.00;1.77;;;26.20;30.10;;;;;;2265787;61;20764;-65
2021/10/07 09:29:01;0.00;0.00;0.62;0.00;0.00;0.62;4.20;1.77;;;26.20;30.10;;;;;;2265573;61;20416;-65
2021/10/07 09:31:45;0.00;0.00;0.62;0.00;0.00;0.62;4.20;1.73;;;26.20;30.00;;;;;;2266166;61;20401;-64
2021/10/07 09:34:46;0.00;0.00;0.62;0.00;0.00;0.62;3.97;1.93;;;26.20;30.00;;;;;;2265312;61;20427;-64
2021/10/07 09:37:37;0.00;0.00;0.62;0.00;0.00;0.62;2.60;1.30;;;26.20;30.00;;;;;;2265777;61;20348;-65
2021/10/07 09:40:25;0.00;0.00;0.62;0.00;0.00;0.62;4.17;1.77;;;26.30;30.00;;;;;;2266112;61;20377;-65
2021/10/07 09:43:15;0.00;0.00;0.62;0.00;0.00;0.62;2.37;1.70;;;26.30;30.10;;;;;;2265414;61;20400;-63
2021/10/07 09:46:00;0.00;0.00;0.62;0.00;0.00;0.62;2.23;1.40;;;26.30;30.10;;;;;;2266024;61;20377;-65
2021/10/07 09:48:49;0.00;0.00;0.62;0.00;0.00;0.62;3.00;1.57;;;26.40;30.20;;;;;;2265715;61;20357;-65
2021/10/07 09:51:40;0.00;0.00;0.62;0.00;0.00;0.62;2.50;1.43;;;26.40;30.10;;;;;;2265655;61;20597;-65
2021/10/07 09:54:33;0.00;0.00;0.62;0.00;0.00;0.62;3.77;2.00;;;26.40;30.10;;;;;;2265865;61;20745;-63
2021/10/07 09:57:18;0.00;0.00;0.62;0.00;0.00;0.62;1.93;1.50;;;26.50;30.10;;;;;;2265346;61;20361;-65
2021/10/07 10:00:05;0.00;0.00;0.62;0.00;0.00;0.62;2.43;1.73;;;26.50;30.20;;;;;;2265823;61;20352;-65
2021/10/07 10:02:50;0.00;0.00;0.62;0.00;0.00;0.62;2.43;1.63;;;26.50;30.10;;;;;;2265988;61;20357;-65
2021/10/07 10:05:37;0.00;0.00;0.62;0.00;0.00;0.62;3.17;1.40;;;26.50;30.00;;;;;;2265505;61;20436;-65
2021/10/07 10:08:22;0.00;0.00;0.62;0.00;0.00;0.62;5.57;1.83;;;26.50;30.00;;;;;;2266126;61;20668;-65
2021/10/07 10:11:08;0.00;0.00;0.62;0.00;0.00;0.62;1.80;1.30;;;26.50;30.00;;;;;;2265723;61;20389;-65
2021/10/07 10:13:52;0.00;0.00;0.62;0.00;0.00;0.62;2.00;1.47;;;26.60;30.00;;;;;;2265615;61;20369;-65
2021/10/07 10:16:37;0.00;0.00;0.62;0.00;0.00;0.62;3.33;1.40;;;26.60;30.00;;;;;;2266123;61;20357;-65
2021/10/07 10:19:23;0.00;0.00;0.62;0.00;0.00;0.62;3.90;1.93;;;26.60;30.00;;;;;;2265059;61;20350;-65
2021/10/07 10:22:07;0.00;0.00;0.62;0.00;0.00;0.62;2.83;1.30;;;26.70;30.00;;;;;;2265701;61;20381;-65
2021/10/07 10:24:52;0.00;0.00;0.62;0.00;0.00;0.62;2.50;1.60;;;26.70;30.00;;;;;;2265877;61;20612;-65
2021/10/07 10:27:52;0.00;0.00;0.62;0.00;0.00;0.62;3.87;1.73;;;26.70;30.00;;;;;;2265219;61;20475;-64
2021/10/07 10:30:44;0.00;0.00;0.62;0.00;0.00;0.62;2.10;1.40;;;26.70;30.00;;;;;;2265902;61;20596;-65
2021/10/07 10:33:31;0.00;0.00;0.62;0.00;0.00;0.62;1.70;1.10;;;26.80;30.00;;;;;;2265149;61;20396;-65
2021/10/07 10:36:32;0.00;0.00;0.62;0.00;0.00;0.62;1.70;1.30;;;26.80;30.00;;;;;;2265704;61;20787;-66
2021/10/07 10:39:19;0.00;0.00;0.62;0.00;0.00;0.62;1.70;1.20;;;26.80;30.00;;;;;;2265908;61;20426;-65
2021/10/07 10:42:06;0.00;0.00;0.62;0.00;0.00;0.62;3.60;1.50;;;26.80;30.00;;;;;;2265170;61;20445;-63
2021/10/07 10:44:55;0.00;0.00;0.62;0.00;0.00;0.62;1.50;1.00;;;26.80;30.00;;;;;;2265607;61;20381;-66
2021/10/07 10:47:42;0.00;0.00;0.62;0.00;0.00;0.62;3.00;1.40;;;26.80;30.00;;;;;;2265489;61;20368;-65
2021/10/07 10:50:31;0.00;0.00;0.62;0.00;0.00;0.62;2.23;1.33;;;26.90;30.00;;;;;;2265054;61;20401;-66
2021/10/07 10:53:22;0.00;0.00;0.62;0.00;0.00;0.62;3.53;1.37;;;26.90;30.00;;;;;;2265799;61;20388;-65
2021/10/07 10:56:08;0.00;0.00;0.62;0.00;0.00;0.62;1.50;1.10;;;26.90;30.00;;;;;;2265130;61;20745;-65